Time;durP1;ratioP1;P1;durP2;ratioP2;P2;SDS_P1;SDS_P2;PMS_P1;PMS_P2;Temp;Humidity;BMP_temperature;BMP_pressure;BME280_temperature;BME280_humidity;BME280_pressure;Samples;Min_cycle;Max_cycle;Signal;HPM_P1;HPM_P2
2023/02/07 00:00:44;;;;;;;3.40;2.65;;;2.30;99.90;;;;;;5030110;28;20030;-46
2023/02/07 00:03:09;;;;;;;4.93;3.38;;;2.30;99.90;;;;;;5030121;28;20021;-48
2023/02/07 00:05:35;;;;;;;4.60;3.38;;;2.30;99.90;;;;;;5029456;28;20163;-49
2023/02/07 00:08:02;;;;;;;3.58;3.28;;;2.30;99.90;;;;;;5019891;28;20158;-53
2023/02/07 00:10:28;;;;;;;2.63;2.42;;;2.20;99.90;;;;;;5015960;28;20465;-51
2023/02/07 00:12:53;;;;;;;5.38;3.65;;;2.20;99.90;;;;;;5015321;28;20041;-50
2023/02/07 00:15:19;;;;;;;3.45;3.17;;;2.20;99.90;;;;;;5015203;28;20030;-49
2023/02/07 00:17:44;;;;;;;4.53;3.10;;;2.10;99.90;;;;;;5014091;28;20449;-54
2023/02/07 00:20:10;;;;;;;5.10;3.03;;;2.10;99.90;;;;;;5015259;28;20387;-49
2023/02/07 00:22:36;;;;;;;6.07;3.25;;;2.00;99.90;;;;;;5013866;28;20030;-49
2023/02/07 00:25:01;;;;;;;3.33;2.65;;;2.10;99.90;;;;;;5015071;28;20037;-52
2023/02/07 00:27:27;;;;;;;3.10;2.80;;;2.00;99.90;;;;;;5014945;28;20076;-53
2023/02/07 00:29:52;;;;;;;4.63;2.70;;;2.10;99.90;;;;;;5015149;28;20033;-47
2023/02/07 00:32:18;;;;;;;3.20;2.90;;;2.10;99.90;;;;;;5014766;28;20034;-50
2023/02/07 00:34:46;;;;;;;3.33;3.00;;;2.10;99.90;;;;;;5014490;28;20458;-52
2023/02/07 00:37:11;;;;;;;3.75;3.45;;;2.10;99.90;;;;;;5014798;28;20022;-51
2023/02/07 00:39:38;;;;;;;6.13;2.97;;;2.10;99.90;;;;;;5014755;28;20317;-48
2023/02/07 00:42:04;;;;;;;2.63;2.47;;;2.00;99.90;;;;;;5013427;28;20409;-52
2023/02/07 00:44:31;;;;;;;3.28;2.58;;;1.90;99.90;;;;;;5013241;28;20029;-48
2023/02/07 00:46:56;;;;;;;2.90;2.70;;;2.00;99.90;;;;;;5014685;28;20071;-50
2023/02/07 00:49:22;;;;;;;2.90;2.58;;;2.00;99.90;;;;;;5014882;28;20030;-52
2023/02/07 00:51:47;;;;;;;2.53;2.33;;;1.90;99.90;;;;;;5014625;28;20033;-49
2023/02/07 00:54:13;;;;;;;4.22;2.70;;;1.90;99.90;;;;;;5014404;28;20037;-49
2023/02/07 00:56:38;;;;;;;3.30;2.42;;;1.90;99.90;;;;;;5013003;28;20030;-54
2023/02/07 00:59:04;;;;;;;2.95;2.65;;;1.90;99.90;;;;;;5014445;28;20034;-49
2023/02/07 01:01:30;;;;;;;3.75;2.53;;;1.80;99.90;;;;;;5014598;28;20393;-51
2023/02/07 01:03:56;;;;;;;5.82;2.97;;;1.80;99.90;;;;;;5014210;28;20022;-50
2023/02/07 01:06:21;;;;;;;3.35;3.00;;;1.80;99.90;;;;;;5014405;28;20018;-50
2023/02/07 01:08:47;;;;;;;3.28;2.65;;;1.80;99.90;;;;;;5014418;28;20041;-50
2023/02/07 01:11:15;;;;;;;6.50;2.70;;;1.80;99.90;;;;;;5013740;28;20133;-49
2023/02/07 01:13:43;;;;;;;3.20;2.90;;;1.90;99.90;;;;;;5013967;28;20081;-49
2023/02/07 01:16:28;;;;;;;3.15;2.83;;;1.90;99.90;;;;;;5014167;28;20026;-53
2023/02/07 01:18:54;;;;;;;3.55;3.05;;;1.90;99.90;;;;;;5012021;28;20036;-48
2023/02/07 01:21:23;;;;;;;2.85;2.65;;;1.90;99.90;;;;;;5012981;28;20029;-48
2023/02/07 01:23:49;;;;;;;3.20;2.90;;;1.80;99.90;;;;;;5013975;28;20026;-47
2023/02/07 01:26:14;;;;;;;3.50;3.10;;;1.80;99.90;;;;;;5014074;28;20018;-47
2023/02/07 01:28:40;;;;;;;2.80;2.60;;;1.80;99.90;;;;;;5014006;28;20033;-47
2023/02/07 01:31:11;;;;;;;3.08;2.80;;;1.80;99.90;;;;;;5014508;28;20033;-48
2023/02/07 01:33:37;;;;;;;3.42;2.83;;;1.90;99.90;;;;;;5013921;28;20025;-47
2023/02/07 01:36:08;;;;;;;3.65;2.83;;;1.90;99.90;;;;;;5014135;28;20030;-48
2023/02/07 01:38:33;;;;;;;3.42;2.65;;;2.00;99.90;;;;;;5013044;28;20030;-48
2023/02/07 01:40:59;;;;;;;2.75;2.55;;;2.00;99.90;;;;;;5014397;28;20030;-49
2023/02/07 01:43:25;;;;;;;2.70;2.50;;;2.00;99.90;;;;;;5013360;28;20029;-51
2023/02/07 01:45:50;;;;;;;2.90;2.70;;;2.00;99.90;;;;;;5013905;28;20053;-49
2023/02/07 01:48:22;;;;;;;3.35;2.80;;;2.00;99.90;;;;;;5013772;28;20040;-50
2023/02/07 01:50:50;;;;;;;2.58;2.38;;;2.00;99.90;;;;;;5014545;28;20053;-47
2023/02/07 01:53:19;;;;;;;6.18;3.00;;;1.90;99.90;;;;;;5013488;28;20448;-47
2023/02/07 01:55:46;;;;;;;6.70;2.67;;;1.90;99.90;;;;;;5013478;28;20033;-50
2023/02/07 01:58:12;;;;;;;4.40;2.58;;;1.90;99.90;;;;;;5013288;28;20036;-47
2023/02/07 02:00:37;;;;;;;3.70;2.58;;;1.80;99.90;;;;;;5013429;28;20030;-50
2023/02/07 02:03:04;;;;;;;2.70;2.50;;;1.80;99.90;;;;;;5013357;28;20112;-50
2023/02/07 02:05:32;;;;;;;3.78;2.90;;;1.80;99.90;;;;;;5013242;28;20448;-49
2023/02/07 02:07:58;;;;;;;3.38;3.15;;;1.70;99.90;;;;;;5011822;28;20053;-51
2023/02/07 02:10:40;;;;;;;3.05;2.75;;;1.70;99.90;;;;;;5013188;28;20061;-48
2023/02/07 02:13:37;;;;;;;2.70;2.50;;;1.70;99.90;;;;;;5012954;28;20030;-47
2023/02/07 02:16:11;;;;;;;3.20;2.90;;;1.70;99.90;;;;;;5012205;28;20053;-50
2023/02/07 02:18:54;;;;;;;2.72;2.53;;;1.70;99.90;;;;;;5013936;28;20118;-49
2023/02/07 02:21:20;;;;;;;3.67;3.00;;;1.70;99.90;;;;;;5013098;28;20022;-48
2023/02/07 02:24:15;;;;;;;2.92;2.72;;;1.70;99.90;;;;;;5011437;28;20018;-52
2023/02/07 02:26:56;;;;;;;2.95;2.70;;;1.70;99.90;;;;;;5013285;28;20089;-48
2023/02/07 02:29:52;;;;;;;3.67;3.00;;;1.70;99.90;;;;;;5012766;28;20026;-49
2023/02/07 02:32:49;;;;;;;3.25;2.95;;;1.60;99.90;;;;;;5012915;28;20068;-48
2023/02/07 02:35:39;;;;;;;3.42;2.90;;;1.60;99.90;;;;;;5012448;28;20061;-48
2023/02/07 02:38:11;;;;;;;3.70;3.20;;;1.60;99.90;;;;;;5012802;28;20049;-51
2023/02/07 02:40:50;;;;;;;3.85;3.15;;;1.60;99.90;;;;;;5012719;28;20054;-47
2023/02/07 02:43:30;;;;;;;3.15;2.85;;;1.60;99.90;;;;;;5012275;28;20022;-48
2023/02/07 02:46:16;;;;;;;3.58;3.22;;;1.50;99.90;;;;;;5012655;28;20029;-49
2023/02/07 02:48:43;;;;;;;2.90;2.67;;;1.50;99.90;;;;;;5012803;28;20067;-47
2023/02/07 02:51:09;;;;;;;3.60;3.30;;;1.50;99.90;;;;;;5013223;28;20022;-50
2023/02/07 02:53:34;;;;;;;3.13;2.92;;;1.50;99.90;;;;;;5012535;28;20045;-50
2023/02/07 02:56:53;;;;;;;4.68;3.33;;;1.50;99.90;;;;;;5012455;28;20038;-47
2023/02/07 02:59:49;;;;;;;5.75;4.18;;;1.40;99.90;;;;;;4987477;28;20532;-47
2023/02/07 03:02:28;;;;;;;6.05;3.47;;;1.40;99.90;;;;;;5012359;28;20022;-47
2023/02/07 03:05:26;;;;;;;4.55;4.00;;;1.50;99.90;;;;;;5012187;28;20092;-47
2023/02/07 03:08:06;;;;;;;6.25;4.55;;;1.40;99.90;;;;;;5012246;28;20028;-48
2023/02/07 03:10:46;;;;;;;4.93;4.30;;;1.40;99.90;;;;;;5012433;28;20441;-48
2023/02/07 03:13:38;;;;;;;4.97;4.47;;;1.40;99.90;;;;;;5012336;28;20033;-47
2023/02/07 03:16:34;;;;;;;5.18;4.07;;;1.30;99.90;;;;;;5012479;28;20034;-47
2023/02/07 03:19:18;;;;;;;4.78;4.30;;;1.20;99.90;;;;;;5013494;28;20200;-52
2023/02/07 03:21:50;;;;;;;4.55;4.10;;;1.20;99.90;;;;;;5013205;28;20563;-49
2023/02/07 03:24:21;;;;;;;3.72;3.42;;;1.20;99.90;;;;;;5012541;28;20400;-50
2023/02/07 03:26:50;;;;;;;5.97;4.43;;;1.30;99.90;;;;;;5013120;28;20076;-48
2023/02/07 03:29:18;;;;;;;5.82;4.78;;;1.20;99.90;;;;;;5012909;28;20073;-51
2023/02/07 03:31:47;;;;;;;4.93;4.38;;;1.20;99.90;;;;;;5012053;28;20032;-48
2023/02/07 03:34:22;;;;;;;3.97;3.67;;;1.10;99.90;;;;;;5011495;28;20493;-50
2023/02/07 03:36:57;;;;;;;4.35;3.90;;;1.10;99.90;;;;;;5012052;28;20033;-47
2023/02/07 03:39:23;;;;;;;3.40;3.15;;;1.10;99.90;;;;;;5010563;28;20037;-48
2023/02/07 03:41:56;;;;;;;4.03;3.72;;;1.00;99.90;;;;;;5009943;28;20028;-51
2023/02/07 03:44:25;;;;;;;5.75;4.32;;;1.10;99.90;;;;;;5011642;28;20096;-48
2023/02/07 03:46:51;;;;;;;5.50;4.00;;;1.00;99.90;;;;;;5011675;28;20022;-52
2023/02/07 03:49:16;;;;;;;4.35;3.95;;;1.00;99.90;;;;;;5010404;28;20031;-52
2023/02/07 03:51:43;;;;;;;5.75;4.88;;;1.00;99.90;;;;;;5011632;28;20053;-48
2023/02/07 03:54:09;;;;;;;5.88;5.00;;;1.10;99.90;;;;;;5011653;28;20559;-55
2023/02/07 03:56:36;;;;;;;5.13;4.28;;;1.00;99.90;;;;;;5009792;28;20044;-53
2023/02/07 03:59:01;;;;;;;6.03;4.45;;;0.90;99.90;;;;;;5011539;28;20026;-51
2023/02/07 04:01:27;;;;;;;5.78;5.18;;;1.00;99.90;;;;;;5011505;28;20030;-56
2023/02/07 04:03:53;;;;;;;6.25;5.60;;;0.90;99.90;;;;;;5011263;28;20022;-47
2023/02/07 04:06:18;;;;;;;7.57;5.85;;;0.90;99.90;;;;;;5011530;28;20029;-51
2023/02/07 04:08:44;;;;;;;5.88;5.18;;;0.80;99.90;;;;;;5011337;28;20022;-47
2023/02/07 04:11:09;;;;;;;7.57;5.63;;;0.90;99.90;;;;;;5011426;28;20456;-51
2023/02/07 04:13:35;;;;;;;10.50;6.20;;;0.80;99.90;;;;;;5011188;28;20519;-48
2023/02/07 04:16:01;;;;;;;8.98;6.20;;;0.70;99.90;;;;;;5011442;28;20029;-49
2023/02/07 04:18:26;;;;;;;6.78;5.70;;;0.70;99.90;;;;;;5011521;28;20033;-51
2023/02/07 04:21:03;;;;;;;6.15;5.55;;;0.60;99.90;;;;;;5010117;28;20034;-52
2023/02/07 04:23:29;;;;;;;6.28;5.40;;;0.50;99.90;;;;;;5011095;28;20385;-52
2023/02/07 04:25:55;;;;;;;8.13;5.72;;;0.40;99.90;;;;;;5011324;28;20455;-49
2023/02/07 04:28:21;;;;;;;6.25;5.00;;;0.40;99.90;;;;;;5010892;28;20026;-52
2023/02/07 04:30:46;;;;;;;6.63;5.82;;;0.40;99.90;;;;;;5010043;28;20401;-51
2023/02/07 04:33:12;;;;;;;6.78;5.75;;;0.30;99.90;;;;;;5009906;28;20497;-49
2023/02/07 04:35:37;;;;;;;6.55;5.22;;;0.30;99.90;;;;;;5009784;28;20037;-52
2023/02/07 04:38:03;;;;;;;8.63;6.25;;;0.30;99.90;;;;;;5011406;28;20065;-52
2023/02/07 04:40:28;;;;;;;13.23;6.88;;;0.40;99.90;;;;;;5010991;28;20030;-49
2023/02/07 04:42:54;;;;;;;7.05;6.35;;;0.30;99.90;;;;;;5011050;28;20156;-49
2023/02/07 04:45:19;;;;;;;7.80;5.90;;;0.30;99.90;;;;;;5011491;28;20026;-54
2023/02/07 04:47:45;;;;;;;8.45;6.43;;;0.30;99.90;;;;;;5011064;28;20022;-52
2023/02/07 04:50:10;;;;;;;9.43;7.00;;;0.30;99.90;;;;;;5011061;28;20041;-50
2023/02/07 04:52:36;;;;;;;10.48;7.18;;;0.20;99.90;;;;;;5010811;28;20073;-49
2023/02/07 04:55:02;;;;;;;10.35;6.85;;;0.20;99.90;;;;;;5013373;28;20025;-52
2023/02/07 04:57:28;;;;;;;11.50;7.65;;;0.20;99.90;;;;;;5014708;28;20469;-49
2023/02/07 04:59:53;;;;;;;12.57;7.45;;;0.30;99.90;;;;;;5014224;28;20074;-51
2023/02/07 05:02:19;;;;;;;10.80;7.45;;;0.20;99.90;;;;;;5013221;28;20478;-49
2023/02/07 05:04:44;;;;;;;14.45;8.75;;;0.30;99.90;;;;;;5013002;28;20105;-51
2023/02/07 05:07:09;;;;;;;13.75;9.23;;;0.20;99.90;;;;;;5013049;28;20014;-54
2023/02/07 05:09:35;;;;;;;13.10;9.10;;;0.20;99.90;;;;;;5014364;28;20030;-51
2023/02/07 05:12:00;;;;;;;16.08;10.25;;;0.20;99.90;;;;;;5014192;28;20057;-51
2023/02/07 05:14:29;;;;;;;14.82;9.50;;;0.20;99.90;;;;;;5012857;28;20454;-48
2023/02/07 05:16:55;;;;;;;17.95;9.48;;;0.20;99.90;;;;;;5014230;28;20101;-46
2023/02/07 05:19:20;;;;;;;15.98;9.05;;;0.20;99.90;;;;;;5014138;28;20433;-49
2023/02/07 05:21:46;;;;;;;16.77;10.05;;;0.20;99.90;;;;;;5014187;28;20484;-52
2023/02/07 05:24:11;;;;;;;13.25;8.98;;;0.20;99.90;;;;;;5012562;28;20124;-48
2023/02/07 05:26:37;;;;;;;15.05;10.10;;;0.20;99.90;;;;;;5014032;28;20065;-49
2023/02/07 05:29:02;;;;;;;13.75;9.15;;;0.10;99.90;;;;;;5014473;28;20408;-50
2023/02/07 05:34:12;;;;;;;20.10;11.43;;;0.20;99.90;;;;;;5013800;28;20125;-50
2023/02/07 05:36:37;;;;;;;19.15;11.05;;;0.20;99.90;;;;;;5013584;28;20101;-50
2023/02/07 05:39:03;;;;;;;17.65;10.85;;;0.20;99.90;;;;;;5013705;28;20481;-53
2023/02/07 05:41:28;;;;;;;15.15;10.43;;;0.10;99.90;;;;;;5013875;28;20030;-49
2023/02/07 05:43:54;;;;;;;16.23;9.35;;;0.10;99.90;;;;;;5012265;28;20033;-50
2023/02/07 05:46:19;;;;;;;17.63;10.05;;;0.00;99.90;;;;;;5013928;28;20018;-50
2023/02/07 05:48:45;;;;;;;16.83;9.52;;;0.00;99.90;;;;;;5012651;28;20050;-54
2023/02/07 05:51:10;;;;;;;17.27;10.65;;;0.00;99.90;;;;;;5013713;28;20032;-50
2023/02/07 05:53:36;;;;;;;14.38;9.27;;;0.00;99.90;;;;;;5013222;28;20041;-48
2023/02/07 05:56:01;;;;;;;12.80;8.85;;;-0.10;99.90;;;;;;5013442;28;20033;-54
2023/02/07 05:58:27;;;;;;;14.40;8.68;;;-0.10;99.90;;;;;;5013857;28;20037;-49
2023/02/07 06:00:54;;;;;;;15.80;9.93;;;-0.10;99.90;;;;;;5013332;28;20093;-51
2023/02/07 06:03:19;;;;;;;16.05;11.13;;;-0.10;99.90;;;;;;5011725;28;20029;-53
2023/02/07 06:05:45;;;;;;;18.33;12.15;;;-0.10;99.90;;;;;;5011506;28;20018;-52
2023/02/07 06:08:10;;;;;;;17.02;10.90;;;-0.10;99.90;;;;;;5013313;28;20056;-55
2023/02/07 06:10:36;;;;;;;14.95;9.95;;;-0.10;99.90;;;;;;5011929;28;20030;-53
2023/02/07 06:13:02;;;;;;;16.15;9.30;;;-0.10;99.90;;;;;;5012036;28;20021;-53
2023/02/07 06:15:27;;;;;;;21.77;10.40;;;-0.10;99.90;;;;;;5011844;28;20030;-51
2023/02/07 06:17:52;;;;;;;18.33;12.50;;;-0.20;99.90;;;;;;5012195;28;20032;-51
2023/02/07 06:20:18;;;;;;;20.55;14.02;;;-0.30;99.90;;;;;;5013132;28;20042;-55
2023/02/07 06:22:44;;;;;;;20.10;13.98;;;-0.30;99.90;;;;;;5013158;28;20405;-46
2023/02/07 06:25:10;;;;;;;21.20;13.68;;;-0.30;99.90;;;;;;5013092;28;20018;-48
2023/02/07 06:27:38;;;;;;;17.88;13.52;;;-0.20;99.90;;;;;;5012824;28;20509;-49
2023/02/07 06:30:04;;;;;;;19.60;13.00;;;-0.20;99.90;;;;;;5012898;28;20401;-51
2023/02/07 06:32:29;;;;;;;18.55;9.57;;;-0.30;99.90;;;;;;5011745;28;20048;-49
2023/02/07 06:34:55;;;;;;;14.57;9.65;;;-0.30;99.90;;;;;;5012604;28;20045;-52
2023/02/07 06:37:20;;;;;;;17.23;9.95;;;-0.30;99.90;;;;;;5012792;28;20026;-51
2023/02/07 06:39:46;;;;;;;15.63;9.45;;;-0.30;99.90;;;;;;5011374;28;20437;-48
2023/02/07 06:42:11;;;;;;;14.88;9.68;;;-0.30;99.90;;;;;;5013242;28;20117;-50
2023/02/07 06:44:37;;;;;;;17.23;10.35;;;-0.30;99.90;;;;;;5011893;28;20067;-52
2023/02/07 06:47:03;;;;;;;16.38;11.27;;;-0.30;99.90;;;;;;5012723;28;20041;-51
2023/02/07 06:49:28;;;;;;;16.15;10.55;;;-0.40;99.90;;;;;;5012690;28;20018;-48
2023/02/07 06:51:54;;;;;;;18.90;11.63;;;-0.40;99.90;;;;;;5012840;28;20050;-51
2023/02/07 06:54:19;;;;;;;18.15;10.48;;;-0.50;99.90;;;;;;5012366;28;20037;-53
2023/02/07 06:56:45;;;;;;;21.25;11.23;;;-0.50;99.90;;;;;;5011134;28;20038;-48
2023/02/07 06:59:10;;;;;;;17.65;10.25;;;-0.60;99.90;;;;;;5012484;28;20022;-50
2023/02/07 07:01:36;;;;;;;18.05;11.38;;;-0.50;99.90;;;;;;5012580;28;20201;-50
2023/02/07 07:04:01;;;;;;;14.30;10.25;;;-0.50;99.90;;;;;;5012139;28;20481;-47
2023/02/07 07:06:27;;;;;;;19.48;12.52;;;-0.50;99.90;;;;;;5010768;28;20025;-48
2023/02/07 07:08:52;;;;;;;17.38;12.05;;;-0.40;99.90;;;;;;5010722;28;20026;-47
2023/02/07 07:11:18;;;;;;;19.33;11.57;;;-0.30;99.90;;;;;;5010932;28;20030;-51
2023/02/07 07:13:44;;;;;;;17.08;10.60;;;-0.30;99.90;;;;;;5011907;28;20034;-48
2023/02/07 07:16:09;;;;;;;15.48;11.52;;;-0.30;99.90;;;;;;5010749;28;20408;-47
2023/02/07 07:18:37;;;;;;;16.48;10.95;;;-0.20;99.90;;;;;;5012280;28;20486;-47
2023/02/07 07:21:02;;;;;;;17.20;11.15;;;0.00;99.90;;;;;;5012650;28;20543;-54
2023/02/07 07:23:28;;;;;;;16.58;11.10;;;-0.10;99.90;;;;;;5012237;28;20030;-52
2023/02/07 07:25:53;;;;;;;16.38;10.55;;;-0.10;99.90;;;;;;5012278;28;20029;-49
2023/02/07 07:28:19;;;;;;;15.52;9.65;;;-0.20;99.90;;;;;;5012388;28;20028;-52
2023/02/07 07:30:45;;;;;;;21.45;12.60;;;-0.20;99.90;;;;;;5012172;28;20481;-53
2023/02/07 07:33:10;;;;;;;16.83;10.45;;;-0.20;99.90;;;;;;5011470;28;20129;-52
2023/02/07 07:35:36;;;;;;;19.75;11.10;;;-0.20;99.90;;;;;;5011923;28;20067;-52
2023/02/07 07:38:01;;;;;;;14.93;10.43;;;-0.20;99.90;;;;;;5011950;28;20033;-51
2023/02/07 07:40:27;;;;;;;19.30;11.82;;;-0.30;99.90;;;;;;5011634;28;20034;-48
2023/02/07 07:42:52;;;;;;;17.40;10.50;;;-0.40;99.90;;;;;;5010509;28;20029;-51
2023/02/07 07:45:18;;;;;;;17.23;11.40;;;-0.30;99.90;;;;;;5011774;28;20025;-50
2023/02/07 07:47:44;;;;;;;23.27;12.35;;;-0.30;99.90;;;;;;5011895;28;20026;-51
2023/02/07 07:50:10;;;;;;;16.90;11.50;;;-0.30;99.90;;;;;;5011953;28;20029;-52
2023/02/07 07:52:35;;;;;;;16.55;11.15;;;-0.30;99.90;;;;;;5011810;28;20107;-50
2023/02/07 07:55:01;;;;;;;18.67;11.25;;;-0.40;99.90;;;;;;5012075;28;20297;-54
2023/02/07 07:57:27;;;;;;;18.42;11.88;;;-0.30;99.90;;;;;;5010747;28;20121;-50
2023/02/07 07:59:53;;;;;;;18.55;11.80;;;-0.30;99.90;;;;;;5012131;28;20057;-49
2023/02/07 08:02:19;;;;;;;18.17;12.25;;;-0.40;99.90;;;;;;5012115;28;20482;-49
2023/02/07 08:04:45;;;;;;;21.50;13.48;;;-0.30;99.90;;;;;;5011645;28;20029;-49
2023/02/07 08:07:10;;;;;;;25.52;12.18;;;-0.30;99.90;;;;;;5010623;28;20022;-51
2023/02/07 08:09:36;;;;;;;20.40;12.93;;;-0.30;99.90;;;;;;5012072;28;20022;-54
2023/02/07 08:12:02;;;;;;;18.08;13.55;;;-0.20;99.90;;;;;;5011055;28;20037;-49
2023/02/07 08:14:27;;;;;;;18.02;11.90;;;-0.20;99.90;;;;;;5011870;28;20041;-51
2023/02/07 08:16:53;;;;;;;20.67;12.68;;;-0.20;99.90;;;;;;5011966;28;20477;-51
2023/02/07 08:19:18;;;;;;;19.60;12.73;;;-0.20;99.90;;;;;;5011805;28;20028;-54
2023/02/07 08:21:44;;;;;;;19.55;13.25;;;-0.10;99.90;;;;;;5011869;28;20029;-48
2023/02/07 08:24:10;;;;;;;21.52;11.88;;;-0.10;99.90;;;;;;5010097;28;20026;-51
2023/02/07 08:26:35;;;;;;;18.55;12.32;;;0.00;99.90;;;;;;5011632;28;20097;-51
2023/02/07 08:29:01;;;;;;;17.17;11.50;;;0.00;99.90;;;;;;5013942;28;20033;-50
2023/02/07 08:31:26;;;;;;;23.13;12.98;;;0.00;99.90;;;;;;5015596;28;20133;-49
2023/02/07 08:33:52;;;;;;;22.95;12.68;;;0.00;99.90;;;;;;5015240;28;20038;-51
2023/02/07 08:36:18;;;;;;;17.35;12.20;;;0.10;99.90;;;;;;5014588;28;20393;-52
2023/02/07 08:38:43;;;;;;;19.60;12.23;;;0.20;99.90;;;;;;5015337;28;20022;-53
2023/02/07 08:41:09;;;;;;;19.65;11.98;;;0.20;99.90;;;;;;5015324;28;20025;-51
2023/02/07 08:43:34;;;;;;;18.73;12.15;;;0.30;99.90;;;;;;5015180;28;20037;-48
2023/02/07 08:46:00;;;;;;;20.13;12.55;;;0.30;99.90;;;;;;5015370;28;20109;-54
2023/02/07 08:48:26;;;;;;;17.65;11.77;;;0.30;99.90;;;;;;5015333;28;20075;-54
2023/02/07 08:50:51;;;;;;;17.63;12.25;;;0.40;99.90;;;;;;5015438;28;20092;-50
2023/02/07 08:53:17;;;;;;;19.33;12.65;;;0.40;99.90;;;;;;5015017;28;20508;-49
2023/02/07 08:55:45;;;;;;;24.20;12.73;;;0.50;99.90;;;;;;5015391;28;20030;-52
2023/02/07 08:58:10;;;;;;;20.98;12.27;;;0.50;99.90;;;;;;5015125;28;20038;-50
2023/02/07 09:00:36;;;;;;;17.58;10.85;;;0.50;99.90;;;;;;5015095;28;20457;-55
2023/02/07 09:03:03;;;;;;;17.45;11.40;;;0.50;99.90;;;;;;5015172;28;20022;-48
2023/02/07 09:05:31;;;;;;;18.45;11.10;;;0.40;99.90;;;;;;5014958;28;20049;-50
2023/02/07 09:07:57;;;;;;;17.70;11.30;;;0.40;99.90;;;;;;5015404;28;20062;-49
2023/02/07 09:10:23;;;;;;;21.45;12.32;;;0.50;99.90;;;;;;5015509;28;20065;-51
2023/02/07 09:12:48;;;;;;;24.45;12.55;;;0.50;99.90;;;;;;5014645;28;20034;-49
2023/02/07 09:15:14;;;;;;;19.80;13.05;;;0.50;99.90;;;;;;5013580;28;20052;-52
2023/02/07 09:17:39;;;;;;;20.13;12.80;;;0.50;99.90;;;;;;5013780;28;20489;-48
2023/02/07 09:20:05;;;;;;;17.17;11.82;;;0.60;99.90;;;;;;5014277;28;20105;-50
2023/02/07 09:23:16;;;;;;;19.35;11.70;;;1.10;99.90;;;;;;5011479;28;20025;-52
2023/02/07 09:25:16;;;;;;;19.30;11.23;;;2.00;99.90;;;;;;5014549;28;20370;-53
2023/02/07 09:27:42;;;;;;;14.98;10.13;;;2.90;99.90;;;;;;5014558;28;20038;-53
2023/02/07 09:30:08;;;;;;;18.73;10.73;;;3.50;99.90;;;;;;4995728;28;20035;-53
2023/02/07 09:32:33;;;;;;;19.10;11.73;;;4.10;99.90;;;;;;4991384;28;20100;-57
2023/02/07 09:35:00;;;;;;;14.25;10.10;;;;;;;;;;4995765;28;20456;-55
2023/02/07 09:37:26;;;;;;;18.95;11.57;;;5.10;99.90;;;;;;5011585;28;20053;-50
2023/02/07 09:39:51;;;;;;;17.90;12.20;;;5.40;99.80;;;;;;5011240;28;20072;-52
2023/02/07 09:42:40;;;;;;;14.70;10.45;;;5.50;98.70;;;;;;5005215;28;20371;-52
2023/02/07 09:45:12;;;;;;;18.52;12.00;;;5.20;98.80;;;;;;4992554;28;20101;-51
2023/02/07 09:47:41;;;;;;;18.50;10.68;;;5.60;98.80;;;;;;4999153;28;20093;-58
2023/02/07 09:50:25;;;;;;;15.70;10.32;;;5.50;98.20;;;;;;5013041;28;20503;-53
2023/02/07 09:53:04;;;;;;;16.02;10.80;;;5.50;98.40;;;;;;5012803;28;20066;-52
2023/02/07 09:55:43;;;;;;;15.05;10.25;;;5.60;97.90;;;;;;5013547;28;20065;-53
2023/02/07 09:58:16;;;;;;;16.35;11.13;;;5.90;97.60;;;;;;5013075;28;20048;-53
2023/02/07 10:00:45;;;;;;;18.98;11.38;;;5.90;97.30;;;;;;5013720;28;20430;-50
2023/02/07 10:03:22;;;;;;;20.45;10.82;;;6.00;97.80;;;;;;5012253;28;20421;-51
2023/02/07 10:05:56;;;;;;;14.25;10.32;;;6.10;96.90;;;;;;5013677;28;20032;-51
2023/02/07 10:08:22;;;;;;;15.30;10.18;;;6.40;97.20;;;;;;5013969;28;20026;-53
2023/02/07 10:11:03;;;;;;;16.80;10.88;;;6.50;95.90;;;;;;5013671;28;20080;-51
2023/02/07 10:13:40;;;;;;;16.35;11.10;;;6.40;96.20;;;;;;5013442;28;20029;-53
2023/02/07 10:16:22;;;;;;;15.38;10.52;;;6.50;96.30;;;;;;5012248;28;20026;-55
2023/02/07 10:19:10;;;;;;;16.75;10.85;;;6.30;96.10;;;;;;5013391;28;20040;-52
2023/02/07 10:22:08;;;;;;;20.83;10.77;;;6.30;96.20;;;;;;5013301;28;20033;-55
2023/02/07 10:24:52;;;;;;;16.88;11.32;;;6.70;95.80;;;;;;4979774;28;20128;-50
2023/02/07 10:27:29;;;;;;;17.05;10.52;;;6.70;95.20;;;;;;5013288;28;20029;-54
2023/02/07 10:30:34;;;;;;;20.73;11.30;;;6.90;94.80;;;;;;5013173;28;20332;-49
2023/02/07 10:33:27;;;;;;;18.33;11.82;;;7.20;94.70;;;;;;4968445;28;20034;-55
2023/02/07 10:35:54;;;;;;;15.45;10.60;;;7.00;94.80;;;;;;5013793;28;20053;-52
2023/02/07 10:38:36;;;;;;;16.75;11.70;;;6.90;94.70;;;;;;5013303;28;20065;-51
2023/02/07 10:41:04;;;;;;;15.00;11.13;;;;;;;;;;5012515;28;20062;-53
2023/02/07 10:43:32;;;;;;;16.15;10.68;;;6.40;94.40;;;;;;5012840;28;20466;-51
2023/02/07 10:46:07;;;;;;;26.48;11.15;;;5.70;96.00;;;;;;5012806;28;20026;-49
2023/02/07 10:48:34;;;;;;;16.35;10.50;;;5.30;96.80;;;;;;5012635;28;20092;-50
2023/02/07 10:51:02;;;;;;;16.92;10.80;;;5.40;97.50;;;;;;5011524;28;20037;-54
2023/02/07 10:53:46;;;;;;;18.02;11.82;;;5.20;97.30;;;;;;5012620;28;20585;-53
2023/02/07 10:56:24;;;;;;;17.85;12.27;;;5.00;97.70;;;;;;5012955;28;20030;-50
2023/02/07 10:58:50;;;;;;;19.92;10.45;;;4.80;97.70;;;;;;5012813;28;20044;-48
2023/02/07 11:01:24;;;;;;;15.88;11.05;;;4.80;97.90;;;;;;5012824;28;20485;-51
2023/02/07 11:03:50;;;;;;;19.05;11.25;;;4.60;98.60;;;;;;5012198;28;20022;-51
2023/02/07 11:06:27;;;;;;;18.95;11.60;;;4.60;97.80;;;;;;5012407;28;20425;-48
2023/02/07 11:09:10;;;;;;;16.65;11.05;;;4.60;97.30;;;;;;5012386;28;20497;-53
2023/02/07 11:11:37;;;;;;;15.13;9.60;;;4.60;97.70;;;;;;5011215;28;20456;-52
2023/02/07 11:14:04;;;;;;;17.05;11.00;;;4.40;97.50;;;;;;5011938;28;20481;-49
2023/02/07 11:16:30;;;;;;;19.08;11.30;;;4.40;98.20;;;;;;5012127;28;20100;-52
2023/02/07 11:19:04;;;;;;;19.95;11.68;;;4.20;99.00;;;;;;5012285;28;20055;-49
2023/02/07 11:21:32;;;;;;;12.50;9.35;;;4.20;98.50;;;;;;5012264;28;20034;-55
2023/02/07 11:24:12;;;;;;;16.55;10.18;;;4.10;96.70;;;;;;5012060;28;20042;-52
2023/02/07 11:27:17;;;;;;;18.10;10.68;;;4.00;97.00;;;;;;5011109;28;20026;-53
2023/02/07 11:29:48;;;;;;;19.45;11.50;;;3.80;98.10;;;;;;5008690;28;20045;-48
2023/02/07 11:32:15;;;;;;;23.42;12.15;;;3.70;98.50;;;;;;5011242;28;20033;-54
2023/02/07 11:34:44;;;;;;;16.38;10.45;;;3.60;98.90;;;;;;5010331;28;20092;-49
2023/02/07 11:37:16;;;;;;;16.13;11.18;;;3.70;98.60;;;;;;5010980;28;20014;-52
2023/02/07 11:39:43;;;;;;;15.75;10.40;;;3.60;98.60;;;;;;5010581;28;20080;-50
2023/02/07 11:42:19;;;;;;;22.30;10.13;;;3.40;98.30;;;;;;5009764;28;20072;-51
2023/02/07 11:44:47;;;;;;;16.23;10.45;;;3.50;98.30;;;;;;5007662;28;20465;-49
2023/02/07 11:47:21;;;;;;;15.30;9.80;;;3.40;98.20;;;;;;5007082;28;20032;-53
2023/02/07 11:49:53;;;;;;;14.90;10.13;;;3.40;98.70;;;;;;5007374;28;20025;-54
2023/02/07 11:52:20;;;;;;;18.20;10.05;;;3.50;98.50;;;;;;5005974;28;20393;-53
2023/02/07 11:55:08;;;;;;;13.35;9.65;;;3.40;98.60;;;;;;5008248;28;20037;-53
2023/02/07 11:57:34;;;;;;;18.50;9.93;;;3.40;98.90;;;;;;5006804;28;20070;-50
2023/02/07 12:00:15;;;;;;;18.35;11.23;;;3.40;99.30;;;;;;5005909;28;20064;-50
2023/02/07 12:02:48;;;;;;;14.50;9.82;;;3.40;97.80;;;;;;5010360;28;20033;-56
2023/02/07 12:05:20;;;;;;;19.45;10.18;;;3.30;98.60;;;;;;5012790;28;20034;-54
2023/02/07 12:07:49;;;;;;;18.45;9.88;;;3.40;98.60;;;;;;5008786;28;20022;-51
2023/02/07 12:10:22;;;;;;;21.48;10.48;;;3.40;98.60;;;;;;4994552;28;20028;-50
2023/02/07 12:13:06;;;;;;;13.30;9.20;;;3.30;99.10;;;;;;5012908;28;20393;-55
2023/02/07 12:15:37;;;;;;;17.05;10.25;;;3.30;99.30;;;;;;5010821;28;20050;-52
2023/02/07 12:18:13;;;;;;;16.08;9.98;;;3.40;99.30;;;;;;5013635;28;20030;-52
2023/02/07 12:21:29;;;;;;;15.00;10.75;;;3.30;99.10;;;;;;5003624;28;20030;-51
2023/02/07 12:24:33;;;;;;;23.70;10.93;;;3.40;98.70;;;;;;4976769;28;20406;-49
2023/02/07 12:27:13;;;;;;;16.10;10.27;;;3.40;98.20;;;;;;5004671;28;20022;-53
2023/02/07 12:30:15;;;;;;;13.27;8.82;;;3.40;98.40;;;;;;5013682;28;20018;-49
2023/02/07 12:33:07;;;;;;;16.52;9.50;;;3.50;98.30;;;;;;5004752;28;20050;-55
2023/02/07 12:35:39;;;;;;;13.40;9.77;;;3.60;98.80;;;;;;4993728;28;20029;-50
2023/02/07 12:38:10;;;;;;;17.00;10.30;;;3.60;98.60;;;;;;4993826;28;20102;-50
2023/02/07 12:40:58;;;;;;;15.50;8.93;;;3.70;98.50;;;;;;4993964;28;20030;-49
2023/02/07 12:43:31;;;;;;;16.40;10.05;;;3.70;97.40;;;;;;4990911;28;20189;-52
2023/02/07 12:46:00;;;;;;;15.40;9.98;;;3.70;97.50;;;;;;5005459;28;20471;-51
2023/02/07 12:48:53;;;;;;;15.80;10.05;;;3.60;97.40;;;;;;5012036;28;20021;-51
2023/02/07 12:51:55;;;;;;;15.40;9.48;;;3.60;97.50;;;;;;5012813;28;20100;-48
2023/02/07 12:54:26;;;;;;;12.68;9.27;;;3.70;98.10;;;;;;5012696;28;20022;-48
2023/02/07 12:57:00;;;;;;;15.13;9.50;;;3.70;97.90;;;;;;4977798;28;1035460;-48
2023/02/07 13:00:07;;;;;;;13.15;9.30;;;3.80;97.90;;;;;;5013859;28;20521;-48
2023/02/07 13:03:13;;;;;;;17.48;9.13;;;3.80;97.60;;;;;;5013033;28;20489;-50